Time;durP1;ratioP1;P1;durP2;ratioP2;P2;SDS_P1;SDS_P2;PMS_P1;PMS_P2;Temp;Humidity;BMP_temperature;BMP_pressure;BME280_temperature;BME280_humidity;BME280_pressure;Samples;Min_cycle;Max_cycle;Signal;HPM_P1;HPM_P2
2022/01/17 00:01:29;;;;;;;;;;;;;;;;;;4964365;28;20843;-65
2022/01/17 00:03:55;;;;;;;;;;;;;;;;;;4964382;28;19936;-65
2022/01/17 00:06:21;;;;;;;;;;;;;;;;;;4963342;28;20421;-65
2022/01/17 00:08:49;;;;;;;;;;;;;;;;;;4964459;28;20449;-65
2022/01/17 00:11:16;;;;;;;;;;;;;;;;;;4962352;28;20010;-64
2022/01/17 00:13:42;;;;;;;;;;;;;;;;;;4961028;28;20017;-64
2022/01/17 00:16:16;;;;;;;;;;;;;;;;;;4965994;28;19981;-64
2022/01/17 00:19:18;;;;;;;;;;;;;;;;;;4959333;28;19955;-64
2022/01/17 00:21:29;;;;;;;;;;;;;;;;;;4962000;28;20023;-64
2022/01/17 00:24:01;;;;;;;;;;;;;;;;;;4961396;28;19965;-64
2022/01/17 00:26:28;;;;;;;;;;;;;;;;;;4963652;28;19969;-64
2022/01/17 00:28:54;;;;;;;;;;;;;;;;;;4963372;28;20020;-64
2022/01/17 00:31:20;;;;;;;;;;;;;;;;;;4963414;28;20016;-64
2022/01/17 00:33:47;;;;;;;;;;;;;;;;;;4963756;28;19930;-64
2022/01/17 00:36:13;;;;;;;;;;;;;;;;;;4962047;28;19922;-64
2022/01/17 00:38:42;;;;;;;;;;;;;;;;;;4960327;28;20359;-64
2022/01/17 00:41:08;;;;;;;;;;;;;;;;;;4964039;28;20365;-64
2022/01/17 00:43:35;;;;;;;;;;;;;;;;;;4962252;28;19941;-64
2022/01/17 00:46:02;;;;;;;;;;;;;;;;;;4960795;28;19942;-64
2022/01/17 00:48:29;;;;;;;;;;;;;;;;;;4963567;28;19926;-64
2022/01/17 00:50:55;;;;;;;;;;;;;;;;;;4962749;28;20028;-64
2022/01/17 00:53:26;;;;;;;;;;;;;;;;;;4962772;28;20005;-64
2022/01/17 00:55:52;;;;;;;;;;;;;;;;;;4960503;28;19922;-64
2022/01/17 00:58:18;;;;;;;;;;;;;;;;;;4960278;28;19965;-64
2022/01/17 01:00:45;;;;;;;;;;;;;;;;;;4960115;28;20013;-64
2022/01/17 01:03:11;;;;;;;;;;;;;;;;;;4963041;28;19922;-64
2022/01/17 01:05:38;;;;;;;;;;;;;;;;;;4964643;28;19926;-64
2022/01/17 01:08:04;;;;;;;;;;;;;;;;;;4962842;28;19929;-64
2022/01/17 01:10:31;;;;;;;;;;;;;;;;;;4963472;28;20017;-64
2022/01/17 01:12:57;;;;;;;;;;;;;;;;;;4964591;28;20408;-64
2022/01/17 01:15:47;;;;;;;;;;;;;;;;;;4962229;28;20021;-64
2022/01/17 01:18:29;;;;;;;;;;;;;;;;;;4961680;28;20024;-64
2022/01/17 01:29:27;;;;;;;;;;;;;;;;;;4961304;28;19984;-63
2022/01/17 01:32:00;;;;;;;;;;;;;;;;;;4958983;28;19926;-64
2022/01/17 01:34:33;;;;;;;;;;;;;;;;;;4962499;28;19930;-64
2022/01/17 01:37:03;;;;;;;;;;;;;;;;;;4963669;28;20436;-63
2022/01/17 01:39:29;;;;;;;;;;;;;;;;;;4961121;28;19922;-64
2022/01/17 01:41:55;;;;;;;;;;;;;;;;;;4964793;28;19965;-63
2022/01/17 01:44:22;;;;;;;;;;;;;;;;;;4958047;28;20016;-63
2022/01/17 01:46:49;;;;;;;;;;;;;;;;;;4959736;28;20001;-63
2022/01/17 01:49:15;;;;;;;;;;;;;;;;;;4961007;28;19926;-64
2022/01/17 01:51:48;;;;;;;;;;;;;;;;;;4958227;28;19950;-63
2022/01/17 01:54:14;;;;;;;;;;;;;;;;;;4964606;28;20262;-63
2022/01/17 01:56:40;;;;;;;;;;;;;;;;;;4961317;28;19926;-63
2022/01/17 01:59:08;;;;;;;;;;;;;;;;;;4964094;28;19973;-63
2022/01/17 02:01:34;;;;;;;;;;;;;;;;;;4963915;28;20073;-63
2022/01/17 02:04:01;;;;;;;;;;;;;;;;;;4965702;28;20371;-63
2022/01/17 02:06:27;;;;;;;;;;;;;;;;;;4963091;28;20018;-63
2022/01/17 02:08:53;;;;;;;;;;;;;;;;;;4965336;28;20020;-63
2022/01/17 02:11:20;;;;;;;;;;;;;;;;;;4962981;28;20453;-63
2022/01/17 02:13:53;;;;;;;;;;;;;;;;;;4962872;28;19992;-63
2022/01/17 02:16:20;;;;;;;;;;;;;;;;;;4964495;28;19965;-63
2022/01/17 02:18:46;;;;;;;;;;;;;;;;;;4964580;28;20047;-63
2022/01/17 02:21:31;;;;;;;;;;;;;;;;;;4964446;28;19996;-63
2022/01/17 02:23:57;;;;;;;;;;;;;;;;;;4965628;28;19966;-63
2022/01/17 02:26:26;;;;;;;;;;;;;;;;;;4961991;28;19976;-63
2022/01/17 02:28:52;;;;;;;;;;;;;;;;;;4968049;28;20005;-63
2022/01/17 02:31:18;;;;;;;;;;;;;;;;;;4966411;28;20457;-63
2022/01/17 02:33:53;;;;;;;;;;;;;;;;;;4963544;28;19926;-63
2022/01/17 02:36:19;;;;;;;;;;;;;;;;;;4966722;28;19929;-63
2022/01/17 02:38:45;;;;;;;;;;;;;;;;;;4963018;28;20018;-63
2022/01/17 02:41:13;;;;;;;;;;;;;;;;;;4962697;28;20362;-63
2022/01/17 02:43:39;;;;;;;;;;;;;;;;;;4962945;28;20082;-63
2022/01/17 02:48:32;;;;;;;;;;;;;;;;;;4962509;28;19926;-63
2022/01/17 02:50:58;;;;;;;;;;;;;;;;;;4966777;28;19980;-63
2022/01/17 02:53:24;;;;;;;;;;;;;;;;;;4966367;28;19985;-63
2022/01/17 02:55:51;;;;;;;;;;;;;;;;;;4965293;28;20024;-64
2022/01/17 02:58:20;;;;;;;;;;;;;;;;;;4966135;28;20033;-64
2022/01/17 03:00:46;;;;;;;;;;;;;;;;;;4965706;28;20008;-64
2022/01/17 03:03:13;;;;;;;;;;;;;;;;;;4965382;28;19930;-64
2022/01/17 03:05:40;;;;;;;;;;;;;;;;;;4960845;28;19941;-64
2022/01/17 03:08:06;;;;;;;;;;;;;;;;;;4965145;28;19968;-64
2022/01/17 03:13:05;;;;;;;;;;;;;;;;;;4965079;28;19973;-64
2022/01/17 03:15:31;;;;;;;;;;;;;;;;;;4963285;28;20023;-64
2022/01/17 03:17:57;;;;;;;;;;;;;;;;;;4963567;28;20010;-64
2022/01/17 03:20:24;;;;;;;;;;;;;;;;;;4963552;28;19969;-64
2022/01/17 03:22:50;;;;;;;;;;;;;;;;;;4962192;28;20480;-64
2022/01/17 03:25:17;;;;;;;;;;;;;;;;;;4966066;28;19981;-64
2022/01/17 03:27:43;;;;;;;;;;;;;;;;;;4965435;28;20386;-64
2022/01/17 03:30:09;;;;;;;;;;;;;;;;;;4963654;28;19996;-64
2022/01/17 03:32:38;;;;;;;;;;;;;;;;;;4961840;28;19965;-64
2022/01/17 03:35:04;;;;;;;;;;;;;;;;;;4962654;28;22265;-64
2022/01/17 03:37:30;;;;;;;;;;;;;;;;;;4965823;28;19978;-64
2022/01/17 03:40:03;;;;;;;;;;;;;;;;;;4965508;28;20469;-64
2022/01/17 03:42:30;;;;;;;;;;;;;;;;;;4963647;28;20042;-64
2022/01/17 03:44:56;;;;;;;;;;;;;;;;;;4963333;28;20029;-64
2022/01/17 03:47:28;;;;;;;;;;;;;;;;;;4962638;28;19930;-64
2022/01/17 03:49:55;;;;;;;;;;;;;;;;;;4962983;28;19973;-64
2022/01/17 03:52:21;;;;;;;;;;;;;;;;;;4962450;28;20467;-64
2022/01/17 03:54:51;;;;;;;;;;;;;;;;;;4962271;28;19926;-64
2022/01/17 03:57:17;;;;;;;;;;;;;;;;;;4963016;28;19925;-64
2022/01/17 03:59:44;;;;;;;;;;;;;;;;;;4960213;28;19922;-64
2022/01/17 04:02:10;;;;;;;;;;;;;;;;;;4967175;28;20009;-64
2022/01/17 04:04:37;;;;;;;;;;;;;;;;;;4964194;28;19933;-63
2022/01/17 04:07:03;;;;;;;;;;;;;;;;;;4962691;28;20115;-63
2022/01/17 04:09:30;;;;;;;;;;;;;;;;;;4962487;28;20016;-63
2022/01/17 04:11:56;;;;;;;;;;;;;;;;;;4964747;28;20453;-63
2022/01/17 04:14:22;;;;;;;;;;;;;;;;;;4965115;28;19956;-63
2022/01/17 04:16:52;;;;;;;;;;;;;;;;;;4957680;28;19973;-63
2022/01/17 04:19:19;;;;;;;;;;;;;;;;;;4959240;28;19922;-64
2022/01/17 04:21:47;;;;;;;;;;;;;;;;;;4963225;28;19926;-64
2022/01/17 04:24:20;;;;;;;;;;;;;;;;;;4962280;28;19949;-63
2022/01/17 04:26:46;;;;;;;;;;;;;;;;;;4961743;28;19923;-64
2022/01/17 04:29:12;;;;;;;;;;;;;;;;;;4962223;28;20029;-64
2022/01/17 04:31:46;;;;;;;;;;;;;;;;;;4962723;28;20358;-63
2022/01/17 04:34:12;;;;;;;;;;;;;;;;;;4964418;28;20365;-63
2022/01/17 04:36:38;;;;;;;;;;;;;;;;;;4964229;28;20166;-64
2022/01/17 04:39:16;;;;;;;;;;;;;;;;;;4961953;28;20053;-63
2022/01/17 04:41:42;;;;;;;;;;;;;;;;;;4962428;28;20358;-64
2022/01/17 04:46:56;;;;;;;;;;;;;;;;;;4963435;28;20365;-64
2022/01/17 04:49:22;;;;;;;;;;;;;;;;;;4963530;28;20017;-64
2022/01/17 04:51:53;;;;;;;;;;;;;;;;;;4964804;28;20013;-64
2022/01/17 04:54:41;;;;;;;;;;;;;;;;;;4963323;28;20043;-64
2022/01/17 04:57:08;;;;;;;;;;;;;;;;;;4963761;28;19984;-64
2022/01/17 04:59:34;;;;;;;;;;;;;;;;;;4962211;28;20394;-64
2022/01/17 05:02:01;;;;;;;;;;;;;;;;;;4960013;28;20020;-63
2022/01/17 05:04:27;;;;;;;;;;;;;;;;;;4961137;28;19933;-64
2022/01/17 05:06:53;;;;;;;;;;;;;;;;;;4963082;28;20017;-64
2022/01/17 05:09:20;;;;;;;;;;;;;;;;;;4959083;28;20005;-64
2022/01/17 05:11:46;;;;;;;;;;;;;;;;;;4961384;28;19922;-63
2022/01/17 05:14:16;;;;;;;;;;;;;;;;;;4958432;28;19995;-63
2022/01/17 05:16:48;;;;;;;;;;;;;;;;;;4959190;28;20156;-64
2022/01/17 05:22:00;;;;;;;;;;;;;;;;;;4963951;28;19926;-64
2022/01/17 05:24:26;;;;;;;;;;;;;;;;;;4960344;28;19933;-64
2022/01/17 05:26:53;;;;;;;;;;;;;;;;;;4962165;28;19966;-64
2022/01/17 05:29:21;;;;;;;;;;;;;;;;;;4959056;28;20010;-64
2022/01/17 05:31:48;;;;;;;;;;;;;;;;;;4953355;28;20017;-64
2022/01/17 05:34:14;;;;;;;;;;;;;;;;;;4959139;28;19929;-64
2022/01/17 05:36:47;;;;;;;;;;;;;;;;;;4966429;28;20053;-64
2022/01/17 05:39:13;;;;;;;;;;;;;;;;;;4962170;28;19997;-64
2022/01/17 05:41:39;;;;;;;;;;;;;;;;;;4965182;28;20021;-64
2022/01/17 05:44:08;;;;;;;;;;;;;;;;;;4963742;28;19969;-64
2022/01/17 05:46:35;;;;;;;;;;;;;;;;;;4963665;28;19930;-64
2022/01/17 05:49:01;;;;;;;;;;;;;;;;;;4964538;28;19968;-64
2022/01/17 05:51:29;;;;;;;;;;;;;;;;;;4960938;28;20422;-63
2022/01/17 05:53:56;;;;;;;;;;;;;;;;;;4970067;28;19958;-64
2022/01/17 05:56:22;;;;;;;;;;;;;;;;;;4967370;28;20050;-64
2022/01/17 05:58:49;;;;;;;;;;;;;;;;;;4963971;28;20013;-64
2022/01/17 06:01:15;;;;;;;;;;;;;;;;;;4967925;28;19969;-64
2022/01/17 06:03:41;;;;;;;;;;;;;;;;;;4964202;28;20473;-63
2022/01/17 06:06:08;;;;;;;;;;;;;;;;;;4965216;28;20373;-63
2022/01/17 06:08:34;;;;;;;;;;;;;;;;;;4964394;28;20028;-63
2022/01/17 06:11:00;;;;;;;;;;;;;;;;;;4967041;28;20025;-64
2022/01/17 06:13:27;;;;;;;;;;;;;;;;;;4967682;28;20016;-67
2022/01/17 06:15:53;;;;;;;;;;;;;;;;;;4964676;28;19931;-63
2022/01/17 06:18:19;;;;;;;;;;;;;;;;;;4966201;28;19958;-63
2022/01/17 06:20:46;;;;;;;;;;;;;;;;;;4962996;28;20029;-64
2022/01/17 06:23:15;;;;;;;;;;;;;;;;;;4958446;28;19926;-64
2022/01/17 06:25:41;;;;;;;;;;;;;;;;;;4962659;28;20365;-63
2022/01/17 06:28:07;;;;;;;;;;;;;;;;;;4963468;28;20038;-64
2022/01/17 06:30:34;;;;;;;;;;;;;;;;;;4961462;28;20016;-63
2022/01/17 06:33:02;;;;;;;;;;;;;;;;;;4964881;28;19981;-63
2022/01/17 06:35:30;;;;;;;;;;;;;;;;;;4964006;28;20013;-64
2022/01/17 06:37:56;;;;;;;;;;;;;;;;;;4964264;28;19961;-63
2022/01/17 06:40:22;;;;;;;;;;;;;;;;;;4965151;28;19966;-63
2022/01/17 06:42:50;;;;;;;;;;;;;;;;;;4965917;28;19954;-63
2022/01/17 06:45:18;;;;;;;;;;;;;;;;;;4964927;28;20496;-64
2022/01/17 06:47:44;;;;;;;;;;;;;;;;;;4957795;28;19927;-63
2022/01/17 06:50:11;;;;;;;;;;;;;;;;;;4956423;28;20009;-64
2022/01/17 06:52:38;;;;;;;;;;;;;;;;;;4965354;28;19958;-64
2022/01/17 06:55:04;;;;;;;;;;;;;;;;;;4966184;28;19925;-63
2022/01/17 06:57:30;;;;;;;;;;;;;;;;;;4966077;28;19961;-64
2022/01/17 06:59:57;;;;;;;;;;;;;;;;;;4918249;28;1365047;-63
2022/01/17 07:02:23;;;;;;;;;;;;;;;;;;4962507;28;20408;-64
2022/01/17 07:04:51;;;;;;;;;;;;;;;;;;4964214;28;19930;-63
2022/01/17 07:07:17;;;;;;;;;;;;;;;;;;4962596;28;19953;-64
2022/01/17 07:09:44;;;;;;;;;;;;;;;;;;4958910;28;19923;-63
2022/01/17 07:12:10;;;;;;;;;;;;;;;;;;4962017;28;19974;-63
2022/01/17 07:14:41;;;;;;;;;;;;;;;;;;4965606;28;19965;-63
2022/01/17 07:17:08;;;;;;;;;;;;;;;;;;4962166;28;19933;-63
2022/01/17 07:19:34;;;;;;;;;;;;;;;;;;4963602;28;20016;-64
2022/01/17 07:22:00;;;;;;;;;;;;;;;;;;4964767;28;19931;-64
2022/01/17 07:24:37;;;;;;;;;;;;;;;;;;4960832;28;19926;-63
2022/01/17 07:27:03;;;;;;;;;;;;;;;;;;4958770;28;19923;-63
2022/01/17 07:29:29;;;;;;;;;;;;;;;;;;4960591;28;20020;-63
2022/01/17 07:31:56;;;;;;;;;;;;;;;;;;4965846;28;19930;-63
2022/01/17 07:34:22;;;;;;;;;;;;;;;;;;4965045;28;20102;-66
2022/01/17 07:36:48;;;;;;;;;;;;;;;;;;4964648;28;19973;-64
2022/01/17 07:39:15;;;;;;;;;;;;;;;;;;4963260;28;19961;-63
2022/01/17 07:41:43;;;;;;;;;;;;;;;;;;4960426;28;19965;-63
2022/01/17 07:44:18;;;;;;;;;;;;;;;;;;4964640;28;19922;-63
2022/01/17 07:46:50;;;;;;;;;;;;;;;;;;4965292;28;19972;-63
2022/01/17 07:49:19;;;;;;;;;;;;;;;;;;4962008;28;19922;-63
2022/01/17 07:51:45;;;;;;;;;;;;;;;;;;4958721;28;19984;-63
2022/01/17 07:54:15;;;;;;;;;;;;;;;;;;4965219;28;19922;-64
2022/01/17 07:56:41;;;;;;;;;;;;;;;;;;4964912;28;19930;-64
2022/01/17 07:59:07;;;;;;;;;;;;;;;;;;4964433;28;20021;-64
2022/01/17 08:01:34;;;;;;;;;;;;;;;;;;4963355;28;20021;-64
2022/01/17 08:04:00;;;;;;;;;;;;;;;;;;4964182;28;20022;-64
2022/01/17 08:06:26;;;;;;;;;;;;;;;;;;4966182;28;19949;-63
2022/01/17 08:08:55;;;;;;;;;;;;;;;;;;4962556;28;19965;-64
2022/01/17 08:11:21;;;;;;;;;;;;;;;;;;4958909;28;19930;-64
2022/01/17 08:13:47;;;;;;;;;;;;;;;;;;4965052;28;19981;-64
2022/01/17 08:16:15;;;;;;;;;;;;;;;;;;4959176;28;20570;-63
2022/01/17 08:18:41;;;;;;;;;;;;;;;;;;4958938;28;20001;-64
2022/01/17 08:21:07;;;;;;;;;;;;;;;;;;4958594;28;19968;-64
2022/01/17 08:23:36;;;;;;;;;;;;;;;;;;4958021;28;20005;-64
2022/01/17 08:26:02;;;;;;;;;;;;;;;;;;4962591;28;19961;-63
2022/01/17 08:28:29;;;;;;;;;;;;;;;;;;4962585;28;19972;-63
2022/01/17 08:30:57;;;;;;;;;;;;;;;;;;4964413;28;20022;-64
2022/01/17 08:33:44;;;;;;;;;;;;;;;;;;4963054;28;19929;-64
2022/01/17 08:36:11;;;;;;;;;;;;;;;;;;4961831;28;19965;-64
2022/01/17 08:38:43;;;;;;;;;;;;;;;;;;4960441;28;19926;-64
2022/01/17 08:41:09;;;;;;;;;;;;;;;;;;4961141;28;20021;-64
2022/01/17 08:43:36;;;;;;;;;;;;;;;;;;4960955;28;19977;-64
2022/01/17 08:46:03;;;;;;;;;;;;;;;;;;4962444;28;19931;-63
2022/01/17 08:48:29;;;;;;;;;;;;;;;;;;4965985;28;20371;-64
2022/01/17 08:50:56;;;;;;;;;;;;;;;;;;4961879;28;19926;-64
2022/01/17 08:53:22;;;;;;;;;;;;;;;;;;4958540;28;19980;-63
2022/01/17 08:55:49;;;;;;;;;;;;;;;;;;4960934;28;19966;-63
2022/01/17 08:58:18;;;;;;;;;;;;;;;;;;4959105;28;19970;-64
2022/01/17 09:00:44;;;;;;;;;;;;;;;;;;4961739;28;20406;-63
2022/01/17 09:03:19;;;;;;;;;;;;;;;;;;4960673;28;19926;-63
2022/01/17 09:05:45;;;;;;;;;;;;;;;;;;4960896;28;19926;-64
2022/01/17 09:08:12;;;;;;;;;;;;;;;;;;4963051;28;19981;-64
2022/01/17 09:10:39;;;;;;;;;;;;;;;;;;4961431;28;19969;-63
2022/01/17 09:13:07;;;;;;;;;;;;;;;;;;4959327;28;20020;-63
2022/01/17 09:15:33;;;;;;;;;;;;;;;;;;4966806;28;20004;-64
2022/01/17 09:17:59;;;;;;;;;;;;;;;;;;4961755;28;19933;-64
2022/01/17 09:20:26;;;;;;;;;;;;;;;;;;4964241;28;20012;-64
2022/01/17 09:22:52;;;;;;;;;;;;;;;;;;4962341;28;20032;-63
2022/01/17 09:25:18;;;;;;;;;;;;;;;;;;4961490;28;20350;-64
2022/01/17 09:27:47;;;;;;;;;;;;;;;;;;4960736;28;20349;-64
2022/01/17 09:30:13;;;;;;;;;;;;;;;;;;4962950;28;19968;-64
2022/01/17 09:32:40;;;;;;;;;;;;;;;;;;4965606;28;19971;-64
2022/01/17 09:35:06;;;;;;;;;;;;;;;;;;4959428;28;19961;-63
2022/01/17 09:37:33;;;;;;;;;;;;;;;;;;4963899;28;20405;-63
2022/01/17 09:39:59;;;;;;;;;;;;;;;;;;4961575;28;20449;-63
2022/01/17 09:42:25;;;;;;;;;;;;;;;;;;4958925;28;20005;-63
2022/01/17 09:44:52;;;;;;;;;;;;;;;;;;4962257;28;20012;-63
2022/01/17 09:47:19;;;;;;;;;;;;;;;;;;4964571;28;20359;-63
2022/01/17 09:49:55;;;;;;;;;;;;;;;;;;4958526;28;20342;-63
2022/01/17 09:52:36;;;;;;;;;;;;;;;;;;4959301;28;20509;-63
2022/01/17 09:55:02;;;;;;;;;;;;;;;;;;4961943;28;19926;-63
2022/01/17 09:57:29;;;;;;;;;;;;;;;;;;4962317;28;20037;-63
2022/01/17 09:59:57;;;;;;;;;;;;;;;;;;4958083;28;20008;-63
2022/01/17 10:02:23;;;;;;;;;;;;;;;;;;4957699;28;20025;-63
2022/01/17 10:04:51;;;;;;;;;;;;;;;;;;4961760;28;20516;-63
2022/01/17 10:07:17;;;;;;;;;;;;;;;;;;4960164;28;19965;-63
2022/01/17 10:09:45;;;;;;;;;;;;;;;;;;4958298;28;19922;-63
2022/01/17 10:12:11;;;;;;;;;;;;;;;;;;4960596;28;19957;-63
2022/01/17 10:14:38;;;;;;;;;;;;;;;;;;4959459;28;19973;-63
2022/01/17 10:17:04;;;;;;;;;;;;;;;;;;4959996;28;20400;-63
2022/01/17 10:19:30;;;;;;;;;;;;;;;;;;4956700;28;20437;-63
2022/01/17 10:21:59;;;;;;;;;;;;;;;;;;4958014;28;19977;-63
2022/01/17 10:24:35;;;;;;;;;;;;;;;;;;4958261;28;19996;-63
2022/01/17 10:27:12;;;;;;;;;;;;;;;;;;4963002;28;19969;-63
2022/01/17 10:35:08;;;;;;;;;;;;;;;;;;4955263;28;20020;-63
2022/01/17 10:37:34;;;;;;;;;;;;;;;;;;4966005;28;20038;-63
2022/01/17 10:40:02;;;;;;;;;;;;;;;;;;4958302;28;20032;-63
2022/01/17 10:42:28;;;;;;;;;;;;;;;;;;4960542;28;19965;-63
2022/01/17 10:44:55;;;;;;;;;;;;;;;;;;4955614;28;20013;-63
2022/01/17 10:47:21;;;;;;;;;;;;;;;;;;4953409;28;20450;-63
2022/01/17 10:49:48;;;;;;;;;;;;;;;;;;4955746;28;19954;-63
2022/01/17 10:52:14;;;;;;;;;;;;;;;;;;4958484;28;20012;-63
2022/01/17 10:54:41;;;;;;;;;;;;;;;;;;4959176;28;20369;-63
2022/01/17 10:57:08;;;;;;;;;;;;;;;;;;4964228;28;20045;-63
2022/01/17 10:59:36;;;;;;;;;;;;;;;;;;4963343;28;19922;-63
2022/01/17 11:02:04;;;;;;;;;;;;;;;;;;4965190;28;20041;-61
2022/01/17 11:04:31;;;;;;;;;;;;;;;;;;4958689;28;20373;-61
2022/01/17 11:06:57;;;;;;;;;;;;;;;;;;4964592;28;19937;-60
2022/01/17 11:09:24;;;;;;;;;;;;;;;;;;4959152;28;19970;-61
2022/01/17 11:11:50;;;;;;;;;;;;;;;;;;4962815;28;19940;-61
2022/01/17 11:14:16;;;;;;;;;;;;;;;;;;4966154;28;19937;-61
2022/01/17 11:16:43;;;;;;;;;;;;;;;;;;4964835;28;20600;-61
2022/01/17 11:20:03;;;;;;;;;;;;;;;;;;4961193;28;20013;-61
2022/01/17 11:21:56;;;;;;;;;;;;;;;;;;4961934;28;19927;-62
2022/01/17 11:24:22;;;;;;;;;;;;;;;;;;4962333;28;20009;-62
2022/01/17 11:26:48;;;;;;;;;;;;;;;;;;4960483;28;19965;-62
2022/01/17 11:29:16;;;;;;;;;;;;;;;;;;4965861;28;19969;-62
2022/01/17 11:31:43;;;;;;;;;;;;;;;;;;4963665;28;20374;-62
2022/01/17 11:34:13;;;;;;;;;;;;;;;;;;4964374;28;19983;-61
2022/01/17 11:36:39;;;;;;;;;;;;;;;;;;4961852;28;19969;-62
2022/01/17 11:39:08;;;;;;;;;;;;;;;;;;4963142;28;19957;-62
2022/01/17 11:41:34;;;;;;;;;;;;;;;;;;4960500;28;19927;-62
2022/01/17 11:44:01;;;;;;;;;;;;;;;;;;4957462;28;19926;-61
2022/01/17 11:46:27;;;;;;;;;;;;;;;;;;4961166;28;20020;-62
2022/01/17 11:48:54;;;;;;;;;;;;;;;;;;4963020;28;20005;-62
2022/01/17 11:51:20;;;;;;;;;;;;;;;;;;4962532;28;19926;-62
2022/01/17 11:53:48;;;;;;;;;;;;;;;;;;4959155;28;19966;-62
2022/01/17 11:56:14;;;;;;;;;;;;;;;;;;4953971;28;20018;-62
2022/01/17 11:58:40;;;;;;;;;;;;;;;;;;4962873;28;20013;-62
2022/01/17 12:01:06;;;;;;;;;;;;;;;;;;4959039;28;19927;-62
2022/01/17 12:03:33;;;;;;;;;;;;;;;;;;4964341;28;19930;-62
2022/01/17 12:06:02;;;;;;;;;;;;;;;;;;4960986;28;19999;-61
2022/01/17 12:08:29;;;;;;;;;;;;;;;;;;4960077;28;19981;-61
2022/01/17 12:10:57;;;;;;;;;;;;;;;;;;4962013;28;19962;-61
2022/01/17 12:13:30;;;;;;;;;;;;;;;;;;4961490;28;20777;-61
2022/01/17 12:15:58;;;;;;;;;;;;;;;;;;4962042;28;19922;-61
2022/01/17 12:18:24;;;;;;;;;;;;;;;;;;4963461;28;19966;-62
2022/01/17 12:20:52;;;;;;;;;;;;;;;;;;4964931;28;20013;-61
2022/01/17 12:23:18;;;;;;;;;;;;;;;;;;4960795;28;20393;-61
2022/01/17 12:25:44;;;;;;;;;;;;;;;;;;4963727;28;20461;-61
2022/01/17 12:28:12;;;;;;;;;;;;;;;;;;4961771;28;20373;-61
2022/01/17 12:30:40;;;;;;;;;;;;;;;;;;4962447;28;20013;-62
2022/01/17 12:33:07;;;;;;;;;;;;;;;;;;4965375;28;20378;-62
2022/01/17 12:35:33;;;;;;;;;;;;;;;;;;4960956;28;20433;-62
2022/01/17 12:38:07;;;;;;;;;;;;;;;;;;4964727;28;19969;-62
2022/01/17 12:40:53;;;;;;;;;;;;;;;;;;4962481;28;20015;-62
2022/01/17 12:43:24;;;;;;;;;;;;;;;;;;4961706;28;20687;-62
2022/01/17 12:45:51;;;;;;;;;;;;;;;;;;4957036;28;19933;-62
2022/01/17 12:48:17;;;;;;;;;;;;;;;;;;4965734;28;19961;-62
2022/01/17 12:50:43;;;;;;;;;;;;;;;;;;4961401;28;20001;-62
2022/01/17 12:53:10;;;;;;;;;;;;;;;;;;4959028;28;20042;-62
2022/01/17 12:55:36;;;;;;;;;;;;;;;;;;4959593;28;20082;-62
2022/01/17 12:58:03;;;;;;;;;;;;;;;;;;4961955;28;19969;-62
2022/01/17 13:00:29;;;;;;;;;;;;;;;;;;4961826;28;19930;-62
2022/01/17 13:02:56;;;;;;;;;;;;;;;;;;4958396;28;20337;-62
2022/01/17 13:05:23;;;;;;;;;;;;;;;;;;4964102;28;20396;-62
2022/01/17 13:07:49;;;;;;;;;;;;;;;;;;4961310;28;19962;-62
2022/01/17 13:10:16;;;;;;;;;;;;;;;;;;4960819;28;20457;-62
2022/01/17 13:12:43;;;;;;;;;;;;;;;;;;4960253;28;20545;-61
2022/01/17 13:15:10;;;;;;;;;;;;;;;;;;4959532;28;20360;-62
2022/01/17 13:17:36;;;;;;;;;;;;;;;;;;4964422;28;20313;-62
2022/01/17 13:20:03;;;;;;;;;;;;;;;;;;4963540;28;20016;-62
2022/01/17 13:22:37;;;;;;;;;;;;;;;;;;4963608;28;20821;-62
2022/01/17 13:25:04;;;;;;;;;;;;;;;;;;4962333;28;19926;-63
2022/01/17 13:27:34;;;;;;;;;;;;;;;;;;4957528;28;20005;-62
2022/01/17 13:30:00;;;;;;;;;;;;;;;;;;4961819;28;19969;-62
2022/01/17 13:32:26;;;;;;;;;;;;;;;;;;4964088;28;20021;-62
2022/01/17 13:34:53;;;;;;;;;;;;;;;;;;4965490;28;19976;-62
2022/01/17 13:37:19;;;;;;;;;;;;;;;;;;4960297;28;19969;-62
2022/01/17 13:39:54;;;;;;;;;;;;;;;;;;4961597;28;19988;-62
2022/01/17 13:42:40;;;;;;;;;;;;;;;;;;4961916;28;20001;-62
2022/01/17 13:45:10;;;;;;;;;;;;;;;;;;4956538;28;19922;-62
2022/01/17 13:47:38;;;;;;;;;;;;;;;;;;4959830;28;19930;-62
2022/01/17 13:50:05;;;;;;;;;;;;;;;;;;4962884;28;19973;-62
2022/01/17 13:52:31;;;;;;;;;;;;;;;;;;4959307;28;20769;-62
2022/01/17 13:54:57;;;;;;;;;;;;;;;;;;4957614;28;20339;-62
2022/01/17 13:57:43;;;;;;;;;;;;;;;;;;4961774;28;19973;-62
2022/01/17 14:00:10;;;;;;;;;;;;;;;;;;4961206;28;20044;-62
2022/01/17 14:02:36;;;;;;;;;;;;;;;;;;4960799;28;19957;-62
2022/01/17 14:05:02;;;;;;;;;;;;;;;;;;4966705;28;20194;-62
2022/01/17 14:07:29;;;;;;;;;;;;;;;;;;4967554;28;19922;-62
2022/01/17 14:09:55;;;;;;;;;;;;;;;;;;4963365;28;19922;-62
2022/01/17 14:12:22;;;;;;;;;;;;;;;;;;4961521;28;19922;-62
2022/01/17 14:14:53;;;;;;;;;;;;;;;;;;4965276;28;20436;-62
2022/01/17 14:17:19;;;;;;;;;;;;;;;;;;4960966;28;19926;-62
2022/01/17 14:19:46;;;;;;;;;;;;;;;;;;4963651;28;20362;-62
2022/01/17 14:22:12;;;;;;;;;;;;;;;;;;4967814;28;19977;-62
2022/01/17 14:24:39;;;;;;;;;;;;;;;;;;4964878;28;19977;-62
2022/01/17 14:27:05;;;;;;;;;;;;;;;;;;4964626;28;20002;-62
2022/01/17 14:29:32;;;;;;;;;;;;;;;;;;4962225;28;19933;-62
2022/01/17 14:31:58;;;;;;;;;;;;;;;;;;4964728;28;19965;-62
2022/01/17 14:34:24;;;;;;;;;;;;;;;;;;4965877;28;20309;-62
2022/01/17 14:36:51;;;;;;;;;;;;;;;;;;4965900;28;20561;-62
2022/01/17 14:39:37;;;;;;;;;;;;;;;;;;4961476;28;19945;-62
2022/01/17 14:42:04;;;;;;;;;;;;;;;;;;4960736;28;19969;-62
2022/01/17 14:44:30;;;;;;;;;;;;;;;;;;4965596;28;19970;-62
2022/01/17 14:47:00;;;;;;;;;;;;;;;;;;4961928;28;19933;-62
2022/01/17 14:49:28;;;;;;;;;;;;;;;;;;4966570;28;19926;-62
2022/01/17 14:51:55;;;;;;;;;;;;;;;;;;4961356;28;19926;-62
2022/01/17 14:54:28;;;;;;;;;;;;;;;;;;4962229;28;20046;-62
2022/01/17 15:00:18;;;;;;;;;;;;;;;;;;4962419;28;19973;-62
2022/01/17 15:02:52;;;;;;;;;;;;;;;;;;4960807;28;19968;-62
2022/01/17 15:05:18;;;;;;;;;;;;;;;;;;4966037;28;19934;-62
2022/01/17 15:07:52;;;;;;;;;;;;;;;;;;4964024;28;19980;-63
2022/01/17 15:10:18;;;;;;;;;;;;;;;;;;4967428;28;20012;-62
2022/01/17 15:12:45;;;;;;;;;;;;;;;;;;4966221;28;19929;-62
2022/01/17 15:15:18;;;;;;;;;;;;;;;;;;4961936;28;19974;-62
2022/01/17 15:17:44;;;;;;;;;;;;;;;;;;4961684;28;19926;-62
2022/01/17 15:20:10;;;;;;;;;;;;;;;;;;4965015;28;19922;-62
2022/01/17 15:22:37;;;;;;;;;;;;;;;;;;4963452;28;19981;-63
2022/01/17 15:25:03;;;;;;;;;;;;;;;;;;4964819;28;20393;-62
2022/01/17 15:27:30;;;;;;;;;;;;;;;;;;4963562;28;20028;-63
2022/01/17 15:29:56;;;;;;;;;;;;;;;;;;4961016;28;19970;-63
2022/01/17 15:32:22;;;;;;;;;;;;;;;;;;4961292;28;20393;-62
2022/01/17 15:34:49;;;;;;;;;;;;;;;;;;4964067;28;19977;-63
2022/01/17 15:37:15;;;;;;;;;;;;;;;;;;4964567;28;20020;-62
2022/01/17 15:39:42;;;;;;;;;;;;;;;;;;4965495;28;19962;-62
2022/01/17 15:42:09;;;;;;;;;;;;;;;;;;4961712;28;20017;-62
2022/01/17 15:44:37;;;;;;;;;;;;;;;;;;4965013;28;19981;-62
2022/01/17 15:47:03;;;;;;;;;;;;;;;;;;4963430;28;20003;-62
2022/01/17 15:49:29;;;;;;;;;;;;;;;;;;4963560;28;20107;-62
2022/01/17 15:51:55;;;;;;;;;;;;;;;;;;4958396;28;20393;-62
2022/01/17 15:54:24;;;;;;;;;;;;;;;;;;4961648;28;19930;-62
2022/01/17 15:56:51;;;;;;;;;;;;;;;;;;4963955;28;19986;-62
2022/01/17 15:59:18;;;;;;;;;;;;;;;;;;4960335;28;20008;-62
2022/01/17 16:01:44;;;;;;;;;;;;;;;;;;4957986;28;19984;-62
2022/01/17 16:04:11;;;;;;;;;;;;;;;;;;4957154;28;19945;-62
2022/01/17 16:06:37;;;;;;;;;;;;;;;;;;4960033;28;19965;-62
2022/01/17 16:09:04;;;;;;;;;;;;;;;;;;4962328;28;20256;-62
2022/01/17 16:11:32;;;;;;;;;;;;;;;;;;4956306;28;20004;-62
2022/01/17 16:13:59;;;;;;;;;;;;;;;;;;4962558;28;19981;-62
2022/01/17 16:16:25;;;;;;;;;;;;;;;;;;4965172;28;20398;-62
2022/01/17 16:18:52;;;;;;;;;;;;;;;;;;4962739;28;20416;-62
2022/01/17 16:21:19;;;;;;;;;;;;;;;;;;4961462;28;19934;-62
2022/01/17 16:23:45;;;;;;;;;;;;;;;;;;4958634;28;20022;-62
2022/01/17 16:26:11;;;;;;;;;;;;;;;;;;4963707;28;20413;-62
2022/01/17 16:28:39;;;;;;;;;;;;;;;;;;4963060;28;19926;-62
2022/01/17 16:31:05;;;;;;;;;;;;;;;;;;4962474;28;20396;-62
2022/01/17 16:33:35;;;;;;;;;;;;;;;;;;4962864;28;19961;-62
2022/01/17 16:36:10;;;;;;;;;;;;;;;;;;4961302;28;19964;-62
2022/01/17 16:38:36;;;;;;;;;;;;;;;;;;4962599;28;19933;-62
2022/01/17 16:41:03;;;;;;;;;;;;;;;;;;4962902;28;19927;-62
2022/01/17 16:43:29;;;;;;;;;;;;;;;;;;4961061;28;19969;-62
2022/01/17 16:45:56;;;;;;;;;;;;;;;;;;4956985;28;19926;-62
2022/01/17 16:48:25;;;;;;;;;;;;;;;;;;4959328;28;19948;-62
2022/01/17 16:50:51;;;;;;;;;;;;;;;;;;4962902;28;20379;-62
2022/01/17 16:53:17;;;;;;;;;;;;;;;;;;4963136;28;19984;-62
2022/01/17 16:55:44;;;;;;;;;;;;;;;;;;4965823;28;19962;-62
2022/01/17 16:58:20;;;;;;;;;;;;;;;;;;4959333;28;20016;-62
2022/01/17 17:00:50;;;;;;;;;;;;;;;;;;4958965;28;20423;-62
2022/01/17 17:03:16;;;;;;;;;;;;;;;;;;4958132;28;20426;-62
2022/01/17 17:05:43;;;;;;;;;;;;;;;;;;4956961;28;19926;-62
2022/01/17 17:08:09;;;;;;;;;;;;;;;;;;4958434;28;20012;-62
2022/01/17 17:10:35;;;;;;;;;;;;;;;;;;4958433;28;20411;-62
2022/01/17 17:13:02;;;;;;;;;;;;;;;;;;4958792;28;20449;-62
2022/01/17 17:15:29;;;;;;;;;;;;;;;;;;4962238;28;19989;-62
2022/01/17 17:17:55;;;;;;;;;;;;;;;;;;4961299;28;20009;-61